Kitsissut

KL  EN  DA
ASIAQ
Weather Now GREENLAND SURVEY
Updated [WGT/WGST] Temperature [°C] Wind [m/s] Air pressure [hPa] Relative humidity [%] Precipitation [mm]
Present Wind chill Speed Max
18.04 00:00-14,8-23,55,1 ⇑8,2101667n/a
17.04 23:00-14,6-22,84,6 ⇑7,2101667n/a
17.04 22:00-14,7-22,44,1 ⇑6,7101669n/a
17.04 21:00-14,7-23,45,1 ⇑8,2101571n/a
17.04 20:00n/an/an/an/an/an/an/a
17.04 19:00-14,2-24,06,7 ⇖8,8101474n/a
17.04 18:00-14,2-23,25,7 ⇖8,2101374n/a
17.04 17:00-14,3-22,44,6 ⇖7,7101276n/a
17.04 16:00-14,7-21,33,1 ⇑6,7101275n/a
17.04 15:00-14,5-22,24,1 ⇑7,7101175n/a
17.04 14:00-14,5-21,03,1 ⇑6,7101175n/a
17.04 13:00-14,8-23,14,6 ⇗8,8101176n/a
17.04 12:00-14,7-21,33,1 ⇗6,2101178n/a
17.04 11:00-14,4-22,14,1 ⇑6,7101077n/a
17.04 10:00-14,5-21,73,6 ⇗7,2101078n/a
17.04 09:00-13,9-20,93,6 ⇑6,7101076n/a
17.04 08:00-13,8-22,35,1 ⇖8,2101074n/a
17.04 07:00-14,1-23,86,7 ⇖10,3100974n/a
17.04 06:00-14,3-22,04,1 ⇖5,1100973n/a
17.04 05:00-14,5-21,73,6 ⇑4,6100973n/a
17.04 04:00-14,5-22,24,1 ⇑5,7100873n/a
17.04 03:00-14,3-22,04,1 ⇖6,2100876n/a
17.04 02:00-14,1-21,74,1 ⇖6,7100875n/a
17.04 01:00-13,9-21,94,6 ⇑6,7100773n/a
17.04 00:00-13,7-22,65,7 ⇖7,7100776n/a
Position: (76.73333333,-73.12083333)

[Back]